createdAt,value
2018-09-19T00:01:17.061Z,97444.58
2018-09-19T00:03:44.504Z,97447.73
2018-09-19T00:06:11.903Z,97448.98
2018-09-19T00:08:39.337Z,97443.73
2018-09-19T00:11:06.772Z,97435.16
2018-09-19T00:13:34.238Z,97437.19
2018-09-19T00:16:02.364Z,97438.98
2018-09-19T00:18:29.821Z,97438.89
2018-09-19T00:20:57.330Z,97436.16
2018-09-19T00:23:24.796Z,97442.87
2018-09-19T00:25:52.248Z,97430.19
2018-09-19T00:28:19.707Z,97443.48
2018-09-19T00:30:47.161Z,97437.97
2018-09-19T00:33:14.612Z,97445.08
2018-09-19T00:35:42.049Z,97451.34
2018-09-19T00:38:09.475Z,97445.56
2018-09-19T00:40:36.973Z,97446.80
2018-09-19T00:43:04.594Z,97449.47
2018-09-19T00:45:32.065Z,97447.09
2018-09-19T00:47:59.492Z,97449.62
2018-09-19T00:50:26.963Z,97445.61
2018-09-19T00:52:54.409Z,97448.63
2018-09-19T00:55:21.822Z,97444.18
2018-09-19T00:57:49.216Z,97454.42
2018-09-19T01:00:17.067Z,97450.80
2018-09-19T01:02:44.538Z,97457.69
2018-09-19T01:05:11.999Z,97453.92
2018-09-19T01:07:39.469Z,97454.94
2018-09-19T01:10:06.922Z,97459.99
2018-09-19T01:12:34.347Z,97462.06
2018-09-19T01:15:01.786Z,97464.59
2018-09-19T01:17:29.242Z,97463.66
2018-09-19T01:19:56.706Z,97470.83
2018-09-19T01:22:24.106Z,97465.69
2018-09-19T01:24:51.631Z,97463.13
2018-09-19T01:27:19.144Z,97464.91
2018-09-19T01:29:46.616Z,97460.36
2018-09-19T01:32:14.095Z,97455.80
2018-09-19T01:34:41.556Z,97455.41
2018-09-19T01:37:08.950Z,97451.53
2018-09-19T01:39:36.685Z,97447.81
2018-09-19T01:42:04.177Z,97450.42
2018-09-19T01:44:31.602Z,97457.38
2018-09-19T01:46:59.051Z,97458.11
2018-09-19T01:49:26.566Z,97462.66
2018-09-19T01:51:54.840Z,97459.80
2018-09-19T01:54:22.265Z,97468.29
2018-09-19T01:56:49.712Z,97464.05
2018-09-19T01:59:17.115Z,97468.08
2018-09-19T02:01:44.520Z,97470.01
2018-09-19T02:04:11.963Z,97466.27
2018-09-19T02:06:39.495Z,97464.69
2018-09-19T02:09:06.972Z,97466.99
2018-09-19T02:11:34.432Z,97465.30
2018-09-19T02:14:01.832Z,97461.53
2018-09-19T02:16:29.352Z,97467.69
2018-09-19T02:18:56.772Z,97463.25
2018-09-19T02:21:24.241Z,97464.33
2018-09-19T02:23:51.715Z,97467.44
2018-09-19T02:26:19.249Z,97461.91
2018-09-19T02:28:46.708Z,97472.38
2018-09-19T02:31:14.187Z,97475.30
2018-09-19T02:33:41.586Z,97473.75
2018-09-19T02:36:09.048Z,97475.05
2018-09-19T02:38:36.508Z,97480.44
2018-09-19T02:41:03.953Z,97476.36
2018-09-19T02:43:31.459Z,97479.41
2018-09-19T02:45:58.943Z,97473.42
2018-09-19T02:48:26.385Z,97481.50
2018-09-19T02:50:53.903Z,97483.05
2018-09-19T02:53:21.389Z,97485.71
2018-09-19T02:55:48.830Z,97484.82
2018-09-19T02:58:16.279Z,97488.59
2018-09-19T03:00:43.722Z,97493.95
2018-09-19T03:03:11.120Z,97492.23
2018-09-19T03:05:38.907Z,97492.17
2018-09-19T03:08:06.373Z,97490.48
2018-09-19T03:10:33.894Z,97483.28
2018-09-19T03:13:01.389Z,97483.22
2018-09-19T03:15:28.802Z,97483.28
2018-09-19T03:17:56.270Z,97485.06
2018-09-19T03:20:23.684Z,97482.32
2018-09-19T03:22:51.146Z,97482.52
2018-09-19T03:25:19.261Z,97486.52
2018-09-19T03:27:46.732Z,97489.65
2018-09-19T03:30:14.146Z,97491.78
2018-09-19T03:32:41.621Z,97489.01
2018-09-19T03:35:09.872Z,97485.06
2018-09-19T03:37:37.497Z,97485.48
2018-09-19T03:40:04.964Z,97484.02
2018-09-19T03:42:32.408Z,97478.66
2018-09-19T03:47:33.562Z,97486.20
2018-09-19T03:50:01.064Z,97475.89
2018-09-19T03:52:28.476Z,97473.92
2018-09-19T03:54:55.910Z,97472.56
2018-09-19T03:57:23.432Z,97470.41
2018-09-19T03:59:50.866Z,97470.33
2018-09-19T04:02:18.361Z,97469.33
2018-09-19T04:04:45.810Z,97472.82
2018-09-19T04:07:13.236Z,97483.59
2018-09-19T04:09:40.701Z,97477.69
2018-09-19T04:12:08.158Z,97476.61
2018-09-19T04:14:35.722Z,97477.86
2018-09-19T04:17:03.201Z,97475.89
2018-09-19T04:19:30.653Z,97477.00
2018-09-19T04:21:58.143Z,97479.05
2018-09-19T04:24:25.642Z,97478.53
2018-09-19T04:26:53.108Z,97479.30
2018-09-19T04:29:20.558Z,97484.09
2018-09-19T04:31:48.055Z,97479.25
2018-09-19T04:34:15.462Z,97477.69
2018-09-19T04:36:42.889Z,97474.17
2018-09-19T04:39:10.340Z,97479.61
2018-09-19T04:44:11.710Z,97489.45
2018-09-19T04:46:39.215Z,97492.59
2018-09-19T04:49:06.785Z,97489.31
2018-09-19T04:51:34.377Z,97506.11
2018-09-19T04:54:01.802Z,97506.35
2018-09-19T04:56:29.384Z,97508.30
2018-09-19T04:58:56.857Z,97511.80
2018-09-19T05:01:24.303Z,97512.19
2018-09-19T05:03:51.768Z,97521.56
2018-09-19T05:06:19.323Z,97520.27
2018-09-19T05:08:46.732Z,97520.94
2018-09-19T05:11:14.275Z,97518.30
2018-09-19T05:13:42.154Z,97526.56
2018-09-19T05:16:09.628Z,97527.98
2018-09-19T05:18:37.070Z,97530.30
2018-09-19T05:21:04.671Z,97531.10
2018-09-19T05:23:32.102Z,97531.86
2018-09-19T05:25:59.531Z,97534.39
2018-09-19T05:28:27.056Z,97532.09
2018-09-19T05:30:54.514Z,97529.63
2018-09-19T05:33:23.154Z,97528.94
2018-09-19T05:35:50.610Z,97539.80
2018-09-19T05:38:18.162Z,97541.89
2018-09-19T05:40:45.768Z,97541.47
2018-09-19T05:43:14.183Z,97540.18
2018-09-19T05:45:41.611Z,97547.70
2018-09-19T05:48:09.056Z,97556.32
2018-09-19T05:50:36.512Z,97557.67
2018-09-19T05:53:04.065Z,97560.42
2018-09-19T05:55:31.667Z,97566.52
2018-09-19T05:57:59.983Z,97565.38
2018-09-19T06:00:27.465Z,97565.66
2018-09-19T06:02:54.983Z,97563.98
2018-09-19T06:05:22.424Z,97563.55
2018-09-19T06:07:49.931Z,97571.64
2018-09-19T06:10:17.487Z,97567.29
2018-09-19T06:12:44.937Z,97573.31
2018-09-19T06:15:12.401Z,97576.09
2018-09-19T06:17:39.867Z,97581.44
2018-09-19T06:20:07.500Z,97586.13
2018-09-19T06:22:34.917Z,97580.91
2018-09-19T06:25:02.321Z,97577.58
2018-09-19T06:27:30.160Z,97583.88
2018-09-19T06:29:57.570Z,97585.08
2018-09-19T06:32:25.866Z,97589.33
2018-09-19T06:34:53.389Z,97595.31
2018-09-19T06:37:20.885Z,97589.35
2018-09-19T06:39:48.475Z,97597.76
2018-09-19T06:42:15.902Z,97594.97
2018-09-19T06:44:43.456Z,97600.86
2018-09-19T06:47:10.915Z,97603.49
2018-09-19T06:49:38.375Z,97596.68
2018-09-19T06:52:05.901Z,97595.59
2018-09-19T06:54:33.348Z,97599.98
2018-09-19T06:57:00.886Z,97597.26
2018-09-19T06:59:28.447Z,97604.28
2018-09-19T07:01:55.864Z,97605.13
2018-09-19T07:04:23.327Z,97599.59
2018-09-19T07:06:51.153Z,97609.83
2018-09-19T07:09:18.591Z,97613.16
2018-09-19T07:11:46.155Z,97619.85
2018-09-19T07:14:13.762Z,97624.99
2018-09-19T07:16:41.313Z,97616.39
2018-09-19T07:19:08.945Z,97628.45
2018-09-19T07:21:36.472Z,97627.84
2018-09-19T07:24:05.729Z,97633.19
2018-09-19T07:26:33.244Z,97636.64
2018-09-19T07:29:00.691Z,97634.41
2018-09-19T07:31:28.777Z,97641.64
2018-09-19T07:33:56.249Z,97632.84
2018-09-19T07:36:23.694Z,97632.00
2018-09-19T07:38:50.677Z,97631.72
2018-09-19T07:41:17.742Z,97636.43
2018-09-19T07:43:44.728Z,97641.84
2018-09-19T07:46:11.801Z,97631.96
2018-09-19T07:48:38.776Z,97628.70
2018-09-19T07:51:05.821Z,97643.31
2018-09-19T07:53:33.931Z,97641.98
2018-09-19T07:56:01.917Z,97634.74
2018-09-19T07:58:28.945Z,97640.61
2018-09-19T08:00:56.150Z,97642.17
2018-09-19T08:03:23.028Z,97634.12
2018-09-19T08:05:50.043Z,97636.94
2018-09-19T08:08:17.128Z,97639.05
2018-09-19T08:10:44.377Z,97638.39
2018-09-19T08:13:11.396Z,97636.33
2018-09-19T08:15:38.431Z,97630.41
2018-09-19T08:18:05.872Z,97638.11
2018-09-19T08:20:33.119Z,97635.95
2018-09-19T08:23:00.585Z,97645.85
2018-09-19T08:25:28.019Z,97636.94
2018-09-19T08:27:55.023Z,97642.65
2018-09-19T08:30:22.502Z,97640.48
2018-09-19T08:32:50.038Z,97646.80
2018-09-19T08:35:17.058Z,97646.47
2018-09-19T08:37:44.560Z,97649.90
2018-09-19T08:40:11.975Z,97648.00
2018-09-19T08:42:39.500Z,97648.68
2018-09-19T08:45:07.061Z,97651.00
2018-09-19T08:47:34.670Z,97643.98
2018-09-19T08:50:02.247Z,97648.20
2018-09-19T08:52:29.865Z,97650.04
2018-09-19T08:54:57.310Z,97649.47
2018-09-19T08:57:24.832Z,97647.59
2018-09-19T08:59:52.680Z,97648.54
2018-09-19T09:02:20.192Z,97650.89
2018-09-19T09:04:47.606Z,97652.20
2018-09-19T09:07:15.154Z,97650.34
2018-09-19T09:09:42.623Z,97647.98
2018-09-19T09:12:10.160Z,97639.54
2018-09-19T09:14:37.588Z,97636.95
2018-09-19T09:17:05.138Z,97637.78
2018-09-19T09:19:32.716Z,97633.78
2018-09-19T09:22:00.284Z,97631.24
2018-09-19T09:24:27.757Z,97633.05
2018-09-19T09:26:55.317Z,97637.76
2018-09-19T09:29:22.687Z,97637.51
2018-09-19T09:31:50.194Z,97637.55
2018-09-19T09:34:17.683Z,97640.27
2018-09-19T09:36:45.160Z,97636.34
2018-09-19T09:39:12.784Z,97629.13
2018-09-19T09:41:40.552Z,97625.03
2018-09-19T09:44:08.025Z,97627.78
2018-09-19T09:46:35.446Z,97623.20
2018-09-19T09:49:02.947Z,97625.89
2018-09-19T09:51:30.458Z,97623.55
2018-09-19T09:53:57.948Z,97625.21
2018-09-19T09:56:25.407Z,97624.91
2018-09-19T09:58:53.022Z,97619.27
2018-09-19T10:01:20.433Z,97621.05
2018-09-19T10:03:47.904Z,97618.87
2018-09-19T10:06:15.449Z,97618.55
2018-09-19T10:08:42.868Z,97614.05
2018-09-19T10:11:10.320Z,97613.98
2018-09-19T10:13:37.834Z,97612.24
2018-09-19T10:16:04.915Z,97608.42
2018-09-19T10:18:32.446Z,97606.70
2018-09-19T10:20:59.863Z,97600.30
2018-09-19T10:23:27.368Z,97590.03
2018-09-19T10:25:54.988Z,97600.98
2018-09-19T10:28:22.494Z,97595.76
2018-09-19T10:30:50.077Z,97592.32
2018-09-19T10:33:17.628Z,97594.11
2018-09-19T10:35:45.037Z,97586.02
2018-09-19T10:38:12.531Z,97589.23
2018-09-19T10:40:40.099Z,97587.88
2018-09-19T10:43:07.559Z,97580.41
2018-09-19T10:45:35.002Z,97580.66
2018-09-19T10:48:02.461Z,97579.55
2018-09-19T10:50:30.025Z,97576.98
2018-09-19T10:52:57.528Z,97574.89
2018-09-19T10:55:25.182Z,97575.64
2018-09-19T10:57:52.614Z,97576.12
2018-09-19T11:00:20.085Z,97568.81
2018-09-19T11:02:47.568Z,97574.40
2018-09-19T11:05:15.129Z,97567.85
2018-09-19T11:07:42.614Z,97562.48
2018-09-19T11:10:10.226Z,97561.98
2018-09-19T11:12:37.850Z,97562.00
2018-09-19T11:15:05.644Z,97558.30
2018-09-19T11:17:33.334Z,97554.95
2018-09-19T11:20:00.807Z,97559.68
2018-09-19T11:22:29.255Z,97556.92
2018-09-19T11:24:56.702Z,97552.20
2018-09-19T11:27:24.164Z,97547.45
2018-09-19T11:29:51.634Z,97550.27
2018-09-19T11:32:19.106Z,97550.72
2018-09-19T11:34:46.696Z,97543.35
2018-09-19T11:37:14.131Z,97547.30
2018-09-19T11:39:41.637Z,97538.65
2018-09-19T11:42:09.170Z,97541.99
2018-09-19T11:44:36.713Z,97536.23
2018-09-19T11:47:04.193Z,97539.88
2018-09-19T11:49:31.894Z,97531.95
2018-09-19T11:51:59.356Z,97533.31
2018-09-19T11:54:27.586Z,97526.81
2018-09-19T11:56:55.566Z,97517.28
2018-09-19T11:59:23.239Z,97515.06
2018-09-19T12:01:50.783Z,97514.21
2018-09-19T12:04:18.305Z,97514.47
2018-09-19T12:06:47.982Z,97507.02
2018-09-19T12:09:15.462Z,97514.30
2018-09-19T12:11:43.040Z,97507.62
2018-09-19T12:14:10.748Z,97497.81
2018-09-19T12:16:38.270Z,97507.19
2018-09-19T12:19:05.674Z,97503.14
2018-09-19T12:21:33.214Z,97498.27
2018-09-19T12:24:00.788Z,97497.33
2018-09-19T12:26:28.263Z,97490.52
2018-09-19T12:28:56.046Z,97491.97
2018-09-19T12:31:23.580Z,97489.46
2018-09-19T12:33:51.175Z,97488.89
2018-09-19T12:36:18.693Z,97492.36
2018-09-19T12:38:47.215Z,97486.98
2018-09-19T12:41:14.626Z,97480.72
2018-09-19T12:43:42.168Z,97479.57
2018-09-19T12:46:10.291Z,97483.89
2018-09-19T12:48:37.790Z,97479.50
2018-09-19T12:51:05.264Z,97476.80
2018-09-19T12:53:32.737Z,97473.12
2018-09-19T12:56:01.534Z,97473.41
2018-09-19T12:58:28.931Z,97475.84
2018-09-19T13:00:56.583Z,97470.32
2018-09-19T13:03:24.060Z,97465.98
2018-09-19T13:05:51.568Z,97465.73
2018-09-19T13:08:19.115Z,97465.05
2018-09-19T13:10:46.711Z,97463.76
2018-09-19T13:13:14.254Z,97461.61
2018-09-19T13:15:42.572Z,97458.27
2018-09-19T13:18:09.989Z,97457.62
2018-09-19T13:20:37.509Z,97457.04
2018-09-19T13:23:04.917Z,97455.85
2018-09-19T13:25:32.458Z,97452.24
2018-09-19T13:27:59.892Z,97451.49
2018-09-19T13:30:27.387Z,97452.16
2018-09-19T13:32:54.924Z,97454.22
2018-09-19T13:35:22.423Z,97446.73
2018-09-19T13:37:49.880Z,97446.00
2018-09-19T13:40:17.506Z,97440.50
2018-09-19T13:42:46.108Z,97441.65
2018-09-19T13:45:13.657Z,97433.20
2018-09-19T13:47:41.516Z,97437.27
2018-09-19T13:50:08.987Z,97439.53
2018-09-19T13:52:36.576Z,97441.77
2018-09-19T13:55:04.038Z,97442.09
2018-09-19T13:57:31.739Z,97437.41
2018-09-19T13:59:59.572Z,97443.66
2018-09-19T14:02:27.182Z,97442.75
2018-09-19T14:04:54.772Z,97447.37
2018-09-19T14:07:22.341Z,97448.50
2018-09-19T14:09:49.404Z,97449.29
2018-09-19T14:12:16.541Z,97446.22
2018-09-19T14:14:55.005Z,97444.42
2018-09-19T14:17:22.012Z,97443.94
2018-09-19T14:19:49.535Z,97440.45
2018-09-19T14:22:17.078Z,97444.09
2018-09-19T14:24:44.724Z,97440.23
2018-09-19T14:27:12.191Z,97439.75
2018-09-19T14:29:39.674Z,97433.49
2018-09-19T14:32:07.174Z,97437.33
2018-09-19T14:34:34.753Z,97432.59
2018-09-19T14:37:02.336Z,97436.92
2018-09-19T14:39:29.780Z,97435.68
2018-09-19T14:41:57.223Z,97431.88
2018-09-19T14:44:24.791Z,97435.38
2018-09-19T14:46:52.315Z,97432.53
2018-09-19T14:49:19.792Z,97433.45
2018-09-19T14:51:47.274Z,97432.53
2018-09-19T14:54:14.726Z,97432.80
2018-09-19T14:56:42.212Z,97431.41
2018-09-19T14:59:09.689Z,97426.28
2018-09-19T15:01:37.184Z,97427.40
2018-09-19T15:04:04.812Z,97421.02
2018-09-19T15:06:32.295Z,97416.20
2018-09-19T15:09:00.346Z,97416.67
2018-09-19T15:11:27.849Z,97418.89
2018-09-19T15:13:55.297Z,97417.16
2018-09-19T15:16:23.412Z,97414.84
2018-09-19T15:18:50.906Z,97414.73
2018-09-19T15:21:18.391Z,97415.34
2018-09-19T15:23:45.854Z,97411.08
2018-09-19T15:26:14.026Z,97409.61
2018-09-19T15:28:41.511Z,97409.45
2018-09-19T15:31:08.978Z,97412.41
2018-09-19T15:33:36.438Z,97411.83
2018-09-19T15:36:03.897Z,97409.13
2018-09-19T15:38:31.342Z,97416.27
2018-09-19T15:40:58.831Z,97413.80
2018-09-19T15:43:26.297Z,97416.51
2018-09-19T15:45:53.822Z,97417.95
2018-09-19T15:48:21.466Z,97420.15
2018-09-19T15:50:48.957Z,97418.97
2018-09-19T15:53:16.504Z,97421.41
2018-09-19T15:55:43.952Z,97427.03
2018-09-19T15:58:11.550Z,97423.25
2018-09-19T16:00:39.018Z,97425.30
2018-09-19T16:03:06.493Z,97419.96
2018-09-19T16:05:33.952Z,97421.20
2018-09-19T16:08:01.428Z,97416.86
2018-09-19T16:10:29.015Z,97424.36
2018-09-19T16:12:56.472Z,97424.92
2018-09-19T16:15:24.137Z,97427.12
2018-09-19T16:17:51.552Z,97431.62
2018-09-19T16:20:18.992Z,97437.83
2018-09-19T16:22:46.468Z,97442.23
2018-09-19T16:25:14.035Z,97440.19
2018-09-19T16:30:14.332Z,97448.98
2018-09-19T16:32:41.826Z,97450.83
2018-09-19T16:35:09.353Z,97445.44
2018-09-19T16:37:36.859Z,97447.00
2018-09-19T16:40:05.064Z,97444.83
2018-09-19T16:42:32.553Z,97449.17
2018-09-19T16:45:00.037Z,97445.39
2018-09-19T16:47:27.528Z,97449.33
2018-09-19T16:49:55.151Z,97448.77
2018-09-19T16:52:22.602Z,97446.77
2018-09-19T16:54:50.140Z,97451.97
2018-09-19T16:57:17.626Z,97450.48
2018-09-19T16:59:45.039Z,97453.95
2018-09-19T17:02:12.500Z,97446.96
2018-09-19T17:04:39.960Z,97453.89
2018-09-19T17:07:07.496Z,97448.80
2018-09-19T17:09:35.155Z,97447.04
2018-09-19T17:12:02.701Z,97457.87
2018-09-19T17:14:30.272Z,97453.03
2018-09-19T17:16:57.819Z,97451.64
2018-09-19T17:19:25.439Z,97451.34
2018-09-19T17:21:52.971Z,97447.86
2018-09-19T17:24:20.510Z,97453.73
2018-09-19T17:26:48.087Z,97455.07
2018-09-19T17:29:15.688Z,97445.19
2018-09-19T17:31:43.237Z,97449.42
2018-09-19T17:34:10.639Z,97453.05
2018-09-19T17:36:38.328Z,97454.16
2018-09-19T17:39:06.084Z,97457.92
2018-09-19T17:41:33.548Z,97463.83
2018-09-19T17:44:01.053Z,97462.89
2018-09-19T17:46:28.592Z,97462.59
2018-09-19T17:48:56.049Z,97463.46
2018-09-19T17:51:23.556Z,97462.16
2018-09-19T17:53:51.739Z,97468.73
2018-09-19T17:56:19.225Z,97466.49
2018-09-19T17:58:46.669Z,97468.83
2018-09-19T18:01:14.120Z,97464.66
2018-09-19T18:03:41.563Z,97471.59
2018-09-19T18:06:09.214Z,97472.09
2018-09-19T18:08:36.651Z,97472.97
2018-09-19T18:11:04.103Z,97477.67
2018-09-19T18:13:32.032Z,97486.02
2018-09-19T18:15:59.495Z,97483.36
2018-09-19T18:18:27.023Z,97479.47
2018-09-19T18:20:54.576Z,97481.23
2018-09-19T18:23:22.043Z,97483.27
2018-09-19T18:25:49.489Z,97491.07
2018-09-19T18:28:16.989Z,97491.27
2018-09-19T18:30:44.473Z,97488.38
2018-09-19T18:33:11.940Z,97491.31
2018-09-19T18:35:40.487Z,97488.91
2018-09-19T18:38:08.015Z,97493.05
2018-09-19T18:40:35.474Z,97493.50
2018-09-19T18:43:02.936Z,97493.81
2018-09-19T18:45:30.708Z,97493.26
2018-09-19T18:47:57.695Z,97495.84
2018-09-19T18:50:25.170Z,97494.51
2018-09-19T18:52:52.680Z,97496.65
2018-09-19T18:55:19.652Z,97502.23
2018-09-19T18:57:47.125Z,97502.23
2018-09-19T19:00:14.604Z,97506.67
2018-09-19T19:02:42.036Z,97504.71
2018-09-19T19:05:09.466Z,97506.84
2018-09-19T19:07:37.078Z,97512.59
2018-09-19T19:10:04.547Z,97515.44
2018-09-19T19:12:31.999Z,97524.63
2018-09-19T19:14:59.500Z,97524.52
2018-09-19T19:17:26.933Z,97527.77
2018-09-19T19:19:54.430Z,97527.38
2018-09-19T19:22:21.867Z,97529.85
2018-09-19T19:24:49.388Z,97534.88
2018-09-19T19:27:16.846Z,97536.59
2018-09-19T19:29:44.247Z,97541.86
2018-09-19T19:32:11.741Z,97540.88
2018-09-19T19:34:39.226Z,97534.86
2018-09-19T19:37:06.722Z,97536.88
2018-09-19T19:39:34.179Z,97537.41
2018-09-19T19:42:02.078Z,97542.62
2018-09-19T19:44:30.792Z,97545.64
2018-09-19T19:46:58.274Z,97538.75
2018-09-19T19:49:25.691Z,97540.37
2018-09-19T19:51:53.233Z,97543.95
2018-09-19T19:54:20.723Z,97542.56
2018-09-19T19:56:48.216Z,97547.78
2018-09-19T19:59:15.814Z,97540.33
2018-09-19T20:01:43.281Z,97545.65
2018-09-19T20:04:10.727Z,97552.05
2018-09-19T20:06:38.254Z,97551.34
2018-09-19T20:09:05.729Z,97553.56
2018-09-19T20:11:33.177Z,97557.69
2018-09-19T20:14:00.722Z,97558.11
2018-09-19T20:16:27.722Z,97564.50
2018-09-19T20:18:55.784Z,97560.80
2018-09-19T20:21:23.225Z,97562.14
2018-09-19T20:23:50.811Z,97555.28
2018-09-19T20:26:17.847Z,97557.14
2018-09-19T20:28:45.325Z,97557.34
2018-09-19T20:31:12.783Z,97556.66
2018-09-19T20:33:40.213Z,97558.12
2018-09-19T20:36:07.660Z,97559.97
2018-09-19T20:38:35.113Z,97557.64
2018-09-19T20:41:02.684Z,97556.88
2018-09-19T20:43:30.179Z,97558.66
2018-09-19T20:45:57.705Z,97559.49
2018-09-19T20:48:25.194Z,97559.78
2018-09-19T20:50:52.704Z,97565.01
2018-09-19T20:53:20.158Z,97565.28
2018-09-19T20:55:47.583Z,97564.45
2018-09-19T20:58:15.287Z,97567.73
2018-09-19T21:00:42.724Z,97573.22
2018-09-19T21:03:10.219Z,97571.91
2018-09-19T21:05:37.700Z,97570.56
2018-09-19T21:08:05.164Z,97567.55
2018-09-19T21:10:33.255Z,97574.66
2018-09-19T21:13:00.720Z,97566.30
2018-09-19T21:15:28.154Z,97569.98
2018-09-19T21:17:55.692Z,97569.04
2018-09-19T21:20:23.111Z,97573.71
2018-09-19T21:22:50.622Z,97568.33
2018-09-19T21:25:18.045Z,97571.16
2018-09-19T21:27:45.483Z,97563.97
2018-09-19T21:30:12.973Z,97572.71
2018-09-19T21:32:40.455Z,97565.44
2018-09-19T21:35:07.898Z,97568.28
2018-09-19T21:37:35.432Z,97568.08
2018-09-19T21:40:02.936Z,97571.23
2018-09-19T21:42:30.351Z,97579.82
2018-09-19T21:44:57.769Z,97575.88
2018-09-19T21:47:25.189Z,97571.95
2018-09-19T21:49:52.654Z,97568.60
2018-09-19T21:52:20.137Z,97572.02
2018-09-19T21:54:47.608Z,97570.75
2018-09-19T21:57:15.457Z,97574.91
2018-09-19T21:59:42.894Z,97575.92
2018-09-19T22:02:10.378Z,97572.89
2018-09-19T22:04:37.783Z,97581.27
2018-09-19T22:07:05.253Z,97574.98
2018-09-19T22:09:32.763Z,97580.39
2018-09-19T22:12:00.255Z,97577.16
2018-09-19T22:14:27.740Z,97571.81
2018-09-19T22:16:55.517Z,97568.45
2018-09-19T22:19:22.977Z,97572.91
2018-09-19T22:21:50.520Z,97572.14
2018-09-19T22:24:18.011Z,97571.19
2018-09-19T22:26:45.426Z,97571.88
2018-09-19T22:29:12.877Z,97577.52
2018-09-19T22:31:40.527Z,97573.66
2018-09-19T22:34:07.969Z,97573.83
2018-09-19T22:36:35.420Z,97575.96
2018-09-19T22:39:02.962Z,97572.07
2018-09-19T22:41:31.418Z,97568.31
2018-09-19T22:43:58.896Z,97567.84
2018-09-19T22:46:26.551Z,97572.72
2018-09-19T22:48:54.046Z,97574.56
2018-09-19T22:51:21.551Z,97573.83
2018-09-19T22:53:49.039Z,97576.89
2018-09-19T22:56:16.490Z,97577.57
2018-09-19T22:58:43.904Z,97575.05
2018-09-19T23:01:11.389Z,97570.03
2018-09-19T23:03:38.853Z,97570.63
2018-09-19T23:06:06.259Z,97564.78
2018-09-19T23:08:33.787Z,97571.05
2018-09-19T23:11:01.230Z,97569.62
2018-09-19T23:13:28.752Z,97576.56
2018-09-19T23:15:56.229Z,97571.73
2018-09-19T23:18:23.742Z,97573.56
2018-09-19T23:20:51.192Z,97567.22
2018-09-19T23:23:18.643Z,97563.78
2018-09-19T23:25:46.041Z,97567.95
2018-09-19T23:28:14.170Z,97566.37
2018-09-19T23:30:41.599Z,97564.34
2018-09-19T23:33:09.085Z,97565.36
2018-09-19T23:35:36.511Z,97562.19
2018-09-19T23:38:03.996Z,97568.03
2018-09-19T23:40:31.464Z,97575.98
2018-09-19T23:42:58.956Z,97580.34
2018-09-19T23:45:26.449Z,97579.27
2018-09-19T23:47:53.953Z,97584.80
2018-09-19T23:50:21.444Z,97574.22
2018-09-19T23:52:48.916Z,97570.59
2018-09-19T23:55:16.825Z,97575.50
2018-09-19T23:57:44.325Z,97574.85
